Time;durP1;ratioP1;P1;durP2;ratioP2;P2;SDS_P1;SDS_P2;PMS_P1;PMS_P2;Temp;Humidity;BMP_temperature;BMP_pressure;BME280_temperature;BME280_humidity;BME280_pressure;Samples;Min_cycle;Max_cycle;Signal;HPM_P1;HPM_P2
2023/08/28 00:02:10;;;;;;;80.55;74.82;;;;;;;21.40;86.15;99383.80;1824322;78;25572;-65
2023/08/28 00:04:37;;;;;;;79.95;74.00;;;;;;;21.40;85.80;99386.55;1824435;78;25479;-65
2023/08/28 00:07:03;;;;;;;80.92;75.10;;;;;;;21.41;85.67;99391.65;1824389;78;25405;-66
2023/08/28 00:09:30;;;;;;;78.37;72.53;;;;;;;21.41;86.80;99404.02;1824431;78;25367;-66
2023/08/28 00:11:56;;;;;;;80.90;74.95;;;;;;;21.39;85.37;99402.28;1824402;78;28049;-65
2023/08/28 00:14:25;;;;;;;81.42;75.10;;;;;;;21.40;85.31;99408.55;1824307;78;27294;-65
2023/08/28 00:17:01;;;;;;;81.15;75.05;;;;;;;21.39;85.06;99408.38;1824442;78;25607;-66
2023/08/28 00:19:27;;;;;;;78.57;72.75;;;;;;;21.38;84.95;99394.43;1824415;78;25462;-66
2023/08/28 00:21:53;;;;;;;79.22;73.33;;;;;;;21.35;84.77;99399.36;1824463;78;25572;-66
2023/08/28 00:24:19;;;;;;;84.07;77.95;;;;;;;21.34;84.65;99393.08;1824493;78;27573;-66
2023/08/28 00:26:45;;;;;;;78.97;73.25;;;;;;;21.33;85.21;99393.48;1824297;78;25525;-65
2023/08/28 00:29:11;;;;;;;80.77;74.72;;;;;;;21.31;84.58;99417.86;1823863;78;25560;-65
2023/08/28 00:31:38;;;;;;;82.33;76.42;;;;;;;21.30;85.13;99434.97;1823766;78;27483;-65
2023/08/28 00:34:05;;;;;;;81.37;75.47;;;;;;;21.27;84.78;99420.04;1823889;78;25385;-65
2023/08/28 00:36:31;;;;;;;80.55;74.27;;;;;;;21.26;84.94;99414.34;1823766;78;27522;-66
2023/08/28 00:38:57;;;;;;;79.85;73.90;;;;;;;21.23;84.75;99423.41;1823760;78;25376;-66
2023/08/28 00:41:23;;;;;;;75.90;70.37;;;;;;;21.23;84.80;99426.73;1823824;78;25533;-66
2023/08/28 00:43:50;;;;;;;80.00;74.15;;;;;;;21.23;84.82;99432.23;1823748;78;25546;-66
2023/08/28 00:46:17;;;;;;;79.58;73.83;;;;;;;21.23;84.88;99441.86;1823865;78;25364;-65
2023/08/28 00:48:43;;;;;;;81.95;75.95;;;;;;;21.23;84.82;99438.54;1823790;78;27474;-65
2023/08/28 00:51:09;;;;;;;78.47;72.97;;;;;;;21.23;84.73;99451.48;1823735;78;25517;-65
2023/08/28 00:53:37;;;;;;;81.72;75.80;;;;;;;21.23;84.87;99448.73;1823753;78;25636;-66
2023/08/28 00:56:04;;;;;;;79.75;73.87;;;;;;;21.22;84.88;99447.96;1823748;78;25458;-66
2023/08/28 00:58:31;;;;;;;78.60;72.70;;;;;;;21.22;84.88;99438.34;1823829;78;25446;-66
2023/08/28 01:00:58;;;;;;;79.32;73.50;;;;;;;21.20;84.63;99456.44;1823822;78;27439;-66
2023/08/28 01:03:25;;;;;;;75.30;69.97;;;;;;;21.20;84.58;99455.06;1823676;78;25550;-66
2023/08/28 01:06:44;;;;;;;78.47;73.17;;;;;;;21.21;84.70;99468.38;1823814;78;25604;-65
2023/08/28 01:09:23;;;;;;;;;;;;;;;21.20;84.48;99460.56;1826478;78;25840;-65
2023/08/28 01:12:17;;;;;;;75.50;70.03;;;;;;;21.20;84.62;99470.96;1823734;78;25573;-65
2023/08/28 01:14:54;;;;;;;75.55;70.17;;;;;;;21.17;84.43;99459.38;1823797;78;27476;-65
2023/08/28 01:17:23;;;;;;;75.15;69.90;;;;;;;21.16;84.35;99447.41;1825721;78;25422;-65
2023/08/28 01:19:50;;;;;;;;;;;;;;;21.14;84.48;99464.30;1832605;78;25525;-65
2023/08/28 01:22:34;;;;;;;72.40;67.50;;;;;;;21.15;84.71;99468.63;1829887;78;25542;-65
2023/08/28 01:25:09;;;;;;;73.15;68.20;;;;;;;21.10;84.90;99468.28;1829305;77;25502;-66
2023/08/28 01:27:41;;;;;;;76.90;71.33;;;;;;;21.07;85.64;99476.72;1830000;78;28140;-66
2023/08/28 01:30:16;;;;;;;77.20;71.53;;;;;;;21.05;86.00;99480.47;1829793;78;25656;-66
2023/08/28 01:32:46;;;;;;;71.65;66.82;;;;;;;21.01;86.46;99459.87;1829889;78;25584;-65
2023/08/28 01:35:20;;;;;;;70.62;66.17;;;;;;;20.94;86.05;99425.52;1813657;78;25797;-65
2023/08/28 01:38:21;;;;;;;70.15;65.95;;;;;;;20.86;86.23;99438.53;1829931;77;25533;-64
2023/08/28 01:40:54;;;;;;;;;;;;;;;20.76;85.78;99446.22;1832670;78;27557;-65
2023/08/28 01:43:24;;;;;;;69.53;65.22;;;;;;;20.68;86.05;99471.55;1829598;78;25564;-65
2023/08/28 01:45:54;;;;;;;70.03;65.72;;;;;;;20.56;86.15;99479.43;1829572;77;25445;-64
2023/08/28 01:48:21;;;;;;;66.90;62.70;;;;;;;20.48;86.57;99479.45;1829818;78;25898;-65
2023/08/28 01:50:47;;;;;;;69.70;65.08;;;;;;;20.41;86.77;99486.31;1829871;78;25450;-65
2023/08/28 01:53:13;;;;;;;69.07;64.80;;;;;;;20.33;86.92;99475.17;1829928;77;25827;-64
2023/08/28 01:56:00;;;;;;;70.17;66.07;;;;;;;20.25;86.99;99480.47;1829743;77;25527;-66
2023/08/28 01:58:28;;;;;;;69.55;65.57;;;;;;;20.15;87.03;99475.95;1829394;77;25585;-66
2023/08/28 02:00:54;;;;;;;68.70;64.67;;;;;;;20.07;86.67;99481.84;1813730;78;25426;-66
2023/08/28 02:03:20;;;;;;;69.00;64.67;;;;;;;20.00;87.43;99477.73;1829848;78;25425;-66
2023/08/28 02:05:46;;;;;;;73.42;69.22;;;;;;;19.96;88.08;99492.23;1829823;78;27455;-66
2023/08/28 02:08:14;;;;;;;71.53;67.12;;;;;;;19.86;87.66;99495.77;1829774;77;25458;-66
2023/08/28 02:10:40;;;;;;;67.90;63.95;;;;;;;19.81;87.95;99513.21;1829812;78;25602;-66
2023/08/28 02:13:06;;;;;;;68.47;64.40;;;;;;;19.75;88.22;99507.30;1829795;78;25550;-66
2023/08/28 02:15:33;;;;;;;67.67;63.63;;;;;;;19.69;88.52;99515.12;1829855;77;25610;-66
2023/08/28 02:17:59;;;;;;;68.52;64.12;;;;;;;19.66;88.67;99521.37;1829693;77;29561;-67
2023/08/28 02:20:26;;;;;;;69.15;65.03;;;;;;;19.63;89.05;99531.78;1829748;78;25699;-67
2023/08/28 02:22:52;;;;;;;68.83;64.70;;;;;;;19.56;88.99;99523.52;1829832;78;25639;-67
2023/08/28 02:25:20;;;;;;;67.32;63.25;;;;;;;19.52;88.95;99530.96;1829776;78;25497;-67
2023/08/28 02:27:47;;;;;;;66.70;62.50;;;;;;;19.48;89.54;99536.44;1830223;78;25596;-67
2023/08/28 02:30:13;;;;;;;66.62;62.38;;;;;;;19.45;89.79;99538.58;1829839;77;27507;-67
2023/08/28 02:32:39;;;;;;;69.40;65.37;;;;;;;19.42;89.97;99544.83;1829707;78;25769;-67
2023/08/28 02:35:07;;;;;;;72.15;67.95;;;;;;;19.38;89.65;99558.53;1829798;77;25521;-67
2023/08/28 02:37:33;;;;;;;72.22;68.02;;;;;;;19.34;89.93;99556.94;1829731;78;25597;-67
2023/08/28 02:40:00;;;;;;;71.57;67.17;;;;;;;19.33;90.55;99558.13;1829827;78;25613;-67
2023/08/28 02:42:26;;;;;;;73.75;69.25;;;;;;;19.31;90.73;99555.00;1829790;78;27522;-66
2023/08/28 02:44:52;;;;;;;72.30;67.95;;;;;;;19.30;90.53;99550.67;1829694;78;25533;-66
2023/08/28 02:47:19;;;;;;;72.03;67.62;;;;;;;19.27;90.87;99551.44;1829796;78;25521;-67
2023/08/28 02:49:47;;;;;;;71.62;67.42;;;;;;;19.24;90.90;99555.75;1829746;78;25555;-66
2023/08/28 02:52:13;;;;;;;72.87;68.57;;;;;;;19.23;91.05;99544.58;1829856;78;25564;-66
2023/08/28 02:54:39;;;;;;;70.32;66.20;;;;;;;19.22;91.24;99547.91;1829834;78;28062;-66
2023/08/28 02:57:06;;;;;;;69.80;65.78;;;;;;;19.22;91.28;99538.88;1829626;78;27380;-67
2023/08/28 02:59:33;;;;;;;70.62;66.42;;;;;;;19.21;91.39;99537.33;1829824;78;25562;-67
2023/08/28 03:01:59;;;;;;;71.07;66.77;;;;;;;19.20;91.61;99533.78;1829779;78;25478;-67
2023/08/28 03:04:25;;;;;;;72.05;67.75;;;;;;;19.19;91.55;99539.67;1829791;78;25594;-67
2023/08/28 03:06:51;;;;;;;71.82;67.55;;;;;;;19.17;91.46;99533.20;1829771;77;29683;-67
2023/08/28 03:09:18;;;;;;;72.20;67.72;;;;;;;19.16;91.72;99525.36;1829687;78;25505;-67
2023/08/28 03:11:45;;;;;;;71.92;67.62;;;;;;;19.14;91.84;99531.23;1829758;78;25589;-67
2023/08/28 03:14:11;;;;;;;71.47;67.22;;;;;;;19.12;91.28;99543.17;1813602;78;25593;-67
2023/08/28 03:16:38;;;;;;;71.22;66.82;;;;;;;19.09;91.21;99545.89;1829835;78;25637;-66
2023/08/28 03:19:05;;;;;;;71.77;67.45;;;;;;;19.07;91.43;99558.61;1804958;78;27474;-66
2023/08/28 03:21:34;;;;;;;71.28;67.05;;;;;;;19.02;91.23;99557.61;1823600;78;25364;-65
2023/08/28 03:24:01;;;;;;;73.28;68.65;;;;;;;19.00;91.11;99563.47;1823835;78;25596;-65
2023/08/28 03:26:29;;;;;;;70.32;66.12;;;;;;;18.99;91.46;99572.84;1823708;78;26117;-67
2023/08/28 03:28:56;;;;;;;70.65;66.35;;;;;;;18.98;91.77;99568.52;1823849;78;25360;-66
2023/08/28 03:31:23;;;;;;;71.90;67.70;;;;;;;18.96;91.80;99564.02;1823693;78;27438;-65
2023/08/28 03:33:49;;;;;;;71.05;66.75;;;;;;;18.94;91.75;99554.03;1823600;78;25422;-65
2023/08/28 03:36:15;;;;;;;70.60;66.28;;;;;;;18.90;91.40;99553.80;1823691;78;25532;-65
2023/08/28 03:38:42;;;;;;;70.72;66.62;;;;;;;18.86;91.24;99571.59;1823618;78;25498;-66
2023/08/28 03:41:09;;;;;;;71.90;67.50;;;;;;;18.83;91.33;99581.94;1823675;78;25533;-65
2023/08/28 03:43:37;;;;;;;73.17;68.70;;;;;;;18.79;91.56;99588.73;1823696;78;27449;-66
2023/08/28 03:46:04;;;;;;;71.57;67.17;;;;;;;18.74;91.20;99592.44;1823586;78;25390;-65
2023/08/28 03:48:30;;;;;;;73.07;68.62;;;;;;;18.68;91.28;99589.27;1823624;78;25621;-66
2023/08/28 03:50:56;;;;;;;72.42;68.20;;;;;;;18.63;91.59;99585.52;1823637;78;25564;-66
2023/08/28 03:53:22;;;;;;;74.15;69.70;;;;;;;18.59;91.58;99586.87;1823626;78;25580;-66
2023/08/28 03:55:49;;;;;;;71.45;66.85;;;;;;;18.55;91.78;99581.93;1823611;78;27484;-66
2023/08/28 03:58:17;;;;;;;73.42;68.78;;;;;;;18.53;91.99;99573.91;1823598;78;25528;-65
2023/08/28 04:00:43;;;;;;;75.62;70.72;;;;;;;18.48;92.07;99568.97;1823606;78;25360;-65
2023/08/28 04:03:09;;;;;;;75.65;70.92;;;;;;;18.46;92.30;99591.84;1823644;78;25555;-65
2023/08/28 04:05:38;;;;;;;74.25;69.67;;;;;;;18.43;92.29;99590.45;1823861;78;25520;-66
2023/08/28 04:08:06;;;;;;;72.70;68.12;;;;;;;18.41;92.44;99585.94;1823962;78;28021;-66
2023/08/28 04:10:33;;;;;;;72.20;67.80;;;;;;;18.39;92.59;99580.03;1823736;78;25379;-65
2023/08/28 04:12:59;;;;;;;72.87;68.28;;;;;;;18.37;92.71;99582.37;1823831;78;25397;-65
2023/08/28 04:15:25;;;;;;;71.72;67.20;;;;;;;18.36;92.69;99593.14;1823719;78;25585;-65
2023/08/28 04:17:51;;;;;;;71.02;66.60;;;;;;;18.35;92.84;99602.50;1823659;77;25421;-65
2023/08/28 04:20:19;;;;;;;70.85;66.50;;;;;;;18.33;93.17;99598.77;1823804;78;27488;-65
2023/08/28 04:22:45;;;;;;;74.97;70.40;;;;;;;18.28;93.44;99595.79;1823719;78;25371;-65
2023/08/28 04:25:14;;;;;;;73.70;69.27;;;;;;;18.29;93.46;99603.44;1823735;78;25600;-65
2023/08/28 04:27:42;;;;;;;74.35;69.90;;;;;;;18.27;93.82;99611.25;1823891;78;25613;-65
2023/08/28 04:30:10;;;;;;;72.22;67.80;;;;;;;18.27;94.03;99608.52;1823855;78;25579;-65
2023/08/28 04:32:37;;;;;;;71.00;66.65;;;;;;;18.26;94.34;99610.44;1823965;78;29630;-65
2023/08/28 04:35:07;;;;;;;71.62;67.20;;;;;;;18.26;94.79;99613.18;1823679;78;25941;-65
2023/08/28 04:37:34;;;;;;;72.10;67.70;;;;;;;18.28;95.23;99608.70;1823794;78;25625;-65
2023/08/28 04:40:00;;;;;;;74.97;70.22;;;;;;;18.32;95.59;99596.41;1823708;78;25569;-65
2023/08/28 04:42:27;;;;;;;72.27;67.37;;;;;;;18.35;95.62;99589.59;1823851;78;25368;-66
2023/08/28 04:44:54;;;;;;;70.47;66.10;;;;;;;18.38;95.91;99601.16;1823815;77;27029;-65
2023/08/28 04:47:22;;;;;;;71.62;67.12;;;;;;;18.42;96.09;99603.92;1823700;78;25820;-65
2023/08/28 04:49:49;;;;;;;73.25;68.60;;;;;;;18.45;96.37;99609.42;1823929;78;25519;-58
2023/08/28 04:52:15;;;;;;;72.12;67.67;;;;;;;18.52;96.58;99616.13;1823707;78;27804;-59
2023/08/28 04:54:42;;;;;;;74.20;69.62;;;;;;;18.58;96.81;99627.73;1823763;78;25390;-59
2023/08/28 04:57:08;;;;;;;74.03;69.47;;;;;;;18.65;96.87;99632.48;1823714;78;29781;-57
2023/08/28 04:59:34;;;;;;;70.15;65.67;;;;;;;18.71;96.97;99638.38;1803071;78;25704;-58
2023/08/28 05:02:00;;;;;;;73.42;68.97;;;;;;;18.78;96.99;99641.17;1823735;78;25341;-58
2023/08/28 05:04:28;;;;;;;75.78;70.97;;;;;;;18.84;97.26;99651.42;1823696;78;25438;-57
2023/08/28 05:06:56;;;;;;;73.05;68.47;;;;;;;18.93;97.13;99655.80;1823821;78;25601;-59
2023/08/28 05:09:22;;;;;;;77.25;72.55;;;;;;;19.00;97.34;99663.49;1823739;78;28340;-58
2023/08/28 05:11:50;;;;;;;75.55;70.67;;;;;;;19.09;97.26;99665.89;1823677;78;25348;-60
2023/08/28 05:14:16;;;;;;;77.92;73.28;;;;;;;19.15;96.83;99663.58;1823702;78;25581;-59
2023/08/28 05:16:42;;;;;;;74.65;70.08;;;;;;;19.19;95.99;99651.47;1823707;78;25489;-58
2023/08/28 05:19:09;;;;;;;72.45;68.02;;;;;;;19.23;95.89;99650.12;1823455;78;25593;-70
2023/08/28 05:21:35;;;;;;;82.65;76.50;;;;;;;19.30;95.96;99641.14;1823722;78;27146;-73
2023/08/28 05:24:01;;;;;;;78.78;73.33;;;;;;;19.34;95.24;99641.38;1823692;78;25507;-72
2023/08/28 05:26:28;;;;;;;76.62;71.85;;;;;;;19.37;95.00;99648.03;1823778;78;25636;-73
2023/08/28 05:28:54;;;;;;;113.17;103.62;;;;;;;19.43;94.81;99667.07;1823761;78;25431;-74
2023/08/28 05:31:20;;;;;;;99.07;91.22;;;;;;;19.45;94.51;99678.44;1823875;78;25618;-74
2023/08/28 05:33:47;;;;;;;78.22;73.33;;;;;;;19.46;93.99;99685.50;1823807;78;28034;-72
2023/08/28 05:36:13;;;;;;;74.50;69.40;;;;;;;19.48;93.68;99694.69;1823746;78;25562;-73
2023/08/28 05:38:39;;;;;;;73.12;68.47;;;;;;;19.50;94.09;99695.13;1823740;78;25435;-74
2023/08/28 05:41:05;;;;;;;72.65;67.90;;;;;;;19.54;94.25;99702.17;1823695;78;25523;-73
2023/08/28 05:43:31;;;;;;;71.22;66.47;;;;;;;19.57;93.65;99702.01;1823765;78;25584;-75
2023/08/28 05:45:58;;;;;;;73.00;68.12;;;;;;;19.59;93.67;99699.06;1823773;78;27318;-70
2023/08/28 05:48:26;;;;;;;74.65;70.05;;;;;;;19.58;92.76;99700.81;1823867;78;25529;-70
2023/08/28 05:50:52;;;;;;;75.10;70.40;;;;;;;19.56;92.26;99688.08;1823805;78;25574;-69
2023/08/28 05:53:18;;;;;;;73.07;68.42;;;;;;;19.56;92.38;99693.00;1823763;78;26067;-70
2023/08/28 05:55:46;;;;;;;71.50;66.95;;;;;;;19.59;92.67;99690.06;1823828;78;25496;-70
2023/08/28 05:58:12;;;;;;;72.80;68.33;;;;;;;19.62;92.20;99687.92;1823662;78;27486;-70
2023/08/28 06:00:42;;;;;;;74.45;69.80;;;;;;;19.64;92.02;99685.58;1823526;78;27352;-70
2023/08/28 06:03:08;;;;;;;73.33;68.72;;;;;;;19.67;92.17;99691.67;1823661;78;25542;-70
2023/08/28 06:05:35;;;;;;;70.42;66.15;;;;;;;19.71;92.18;99694.42;1823664;78;25866;-70
2023/08/28 06:08:01;;;;;;;71.62;67.30;;;;;;;19.76;92.22;99695.45;1823702;78;25536;-70
2023/08/28 06:10:31;;;;;;;74.22;69.75;;;;;;;19.77;91.13;99690.95;1823676;78;27468;-70
2023/08/28 06:12:58;;;;;;;72.40;67.82;;;;;;;19.81;91.59;99687.45;1823666;78;25568;-72
2023/08/28 06:15:25;;;;;;;70.92;66.62;;;;;;;19.87;91.66;99682.58;1823710;78;25572;-67
2023/08/28 06:17:53;;;;;;;73.00;68.47;;;;;;;19.95;92.05;99683.37;1823664;78;25502;-69
2023/08/28 06:20:22;;;;;;;73.80;69.35;;;;;;;20.03;91.85;99683.59;1829473;78;25138;-71
2023/08/28 06:22:48;;;;;;;72.00;67.40;;;;;;;20.09;91.33;99689.48;1829880;78;27443;-68
2023/08/28 06:25:15;;;;;;;72.55;68.25;;;;;;;20.14;90.75;99684.98;1829761;77;25171;-73
2023/08/28 06:27:41;;;;;;;71.53;67.12;;;;;;;20.19;90.34;99687.95;1829778;77;25402;-72
2023/08/28 06:30:10;;;;;;;85.70;78.92;;;;;;;20.21;89.41;99704.24;1829791;77;25533;-74
2023/08/28 06:32:36;;;;;;;74.75;69.92;;;;;;;20.24;88.15;99699.92;1829941;77;25641;-71
2023/08/28 06:35:02;;;;;;;75.78;71.00;;;;;;;20.24;88.15;99699.92;1829744;77;27440;-71
2023/08/28 06:37:29;;;;;;;69.72;65.52;;;;;;;20.28;88.60;99705.63;1829778;77;25803;-72
2023/08/28 06:39:55;;;;;;;68.25;64.03;;;;;;;20.37;88.96;99705.25;1829826;78;25551;-64
2023/08/28 06:42:23;;;;;;;70.70;65.90;;;;;;;20.47;88.69;99719.59;1829708;77;25649;-64
2023/08/28 06:44:52;;;;;;;70.60;66.42;;;;;;;20.49;87.31;99714.48;1829770;78;25435;-65
2023/08/28 06:47:19;;;;;;;67.47;63.52;;;;;;;20.56;86.54;99722.55;1829663;78;29699;-65
2023/08/28 06:49:47;;;;;;;72.35;67.75;;;;;;;20.56;85.91;99736.28;1829784;78;25574;-65
2023/08/28 06:52:13;;;;;;;71.22;67.03;;;;;;;20.59;85.60;99731.38;1829745;78;25364;-64
2023/08/28 06:54:40;;;;;;;71.80;67.47;;;;;;;20.64;85.89;99731.03;1829736;77;25530;-63
2023/08/28 06:57:06;;;;;;;70.35;66.10;;;;;;;20.76;85.75;99740.86;1829801;78;25532;-63
2023/08/28 06:59:32;;;;;;;68.35;64.42;;;;;;;20.93;85.97;99731.05;1829718;78;27801;-65
2023/08/28 07:01:59;;;;;;;66.20;62.45;;;;;;;21.08;85.93;99727.11;1829601;78;25362;-65
2023/08/28 07:04:25;;;;;;;73.57;69.37;;;;;;;21.33;86.55;99732.55;1829793;77;25541;-65
2023/08/28 07:06:51;;;;;;;70.42;66.33;;;;;;;21.56;85.51;99737.66;1829612;78;25672;-66
2023/08/28 07:09:17;;;;;;;66.90;62.88;;;;;;;21.71;84.16;99741.16;1829706;78;25376;-65
2023/08/28 07:11:43;;;;;;;68.95;64.50;;;;;;;21.93;83.62;99752.08;1829678;78;27471;-66
2023/08/28 07:14:11;;;;;;;67.67;63.55;;;;;;;22.13;83.09;99741.37;1829386;77;26520;-66
2023/08/28 07:16:38;;;;;;;68.87;64.77;;;;;;;22.40;83.14;99736.74;1829560;77;25583;-66
2023/08/28 07:19:04;;;;;;;67.32;63.42;;;;;;;22.65;81.65;99734.60;1829488;78;26059;-66
2023/08/28 07:21:30;;;;;;;65.90;61.63;;;;;;;22.93;81.44;99734.98;1829724;78;25623;-66
2023/08/28 07:23:58;;;;;;;69.30;65.30;;;;;;;23.16;80.18;99735.01;1829746;78;28034;-72
2023/08/28 07:26:24;;;;;;;66.37;62.47;;;;;;;23.36;79.06;99740.73;1829932;77;25651;-70
2023/08/28 07:28:51;;;;;;;69.22;64.82;;;;;;;23.64;79.35;99738.86;1829772;78;25558;-70
2023/08/28 07:31:17;;;;;;;73.20;68.40;;;;;;;23.80;76.03;99718.36;1829941;78;26140;-71
2023/08/28 07:33:43;;;;;;;90.32;82.85;;;;;;;23.99;75.95;99716.97;1829777;77;25596;-74
2023/08/28 07:36:10;;;;;;;75.55;70.70;;;;;;;24.26;75.29;99724.48;1829685;78;27489;-75
2023/08/28 07:38:36;;;;;;;68.33;64.32;;;;;;;24.50;75.18;99735.02;1829691;78;25505;-72
2023/08/28 07:41:02;;;;;;;68.95;64.95;;;;;;;24.81;73.30;99728.05;1829907;78;25398;-70
2023/08/28 07:43:29;;;;;;;68.75;63.45;;;;;;;25.04;71.88;99727.25;1829886;78;25652;-67
2023/08/28 07:45:55;;;;;;;64.92;61.02;;;;;;;25.23;71.76;99732.64;1829997;77;25659;-68
2023/08/28 07:48:23;;;;;;;64.03;60.38;;;;;;;25.58;70.66;99726.92;1829835;77;27541;-64
2023/08/28 07:50:49;;;;;;;64.45;60.80;;;;;;;25.68;68.03;99724.55;1829907;78;25489;-63
2023/08/28 07:53:15;;;;;;;65.30;61.65;;;;;;;25.81;68.10;99726.85;1829577;78;25614;-63
2023/08/28 07:55:41;;;;;;;64.95;61.35;;;;;;;26.11;67.95;99728.44;1829866;78;25585;-64
2023/08/28 07:58:09;;;;;;;65.32;61.63;;;;;;;26.40;67.54;99726.58;1830217;77;25561;-63
2023/08/28 08:00:43;;;;;;;63.68;60.28;;;;;;;26.69;66.16;99726.55;1829900;77;27558;-62
2023/08/28 08:03:10;;;;;;;61.63;58.28;;;;;;;26.77;64.09;99717.63;1829655;78;25519;-64
2023/08/28 08:05:38;;;;;;;62.78;59.23;;;;;;;26.82;62.95;99706.62;1829959;77;25391;-64
2023/08/28 08:08:08;;;;;;;62.78;58.85;;;;;;;26.87;62.23;99706.09;1829792;78;27752;-64
2023/08/28 08:10:42;;;;;;;61.35;58.00;;;;;;;26.95;62.32;99699.73;1829903;78;25525;-63
2023/08/28 08:13:08;;;;;;;62.40;58.80;;;;;;;27.03;62.16;99699.12;1829903;78;28493;-64
2023/08/28 08:15:37;;;;;;;65.10;60.83;;;;;;;27.20;61.67;99699.09;1829809;78;25429;-64
2023/08/28 08:18:08;;;;;;;63.83;60.33;;;;;;;27.29;60.74;99688.77;1830033;77;27513;-65
2023/08/28 08:20:43;;;;;;;62.25;58.80;;;;;;;27.34;59.82;99688.23;1829732;77;25411;-65
2023/08/28 08:23:13;;;;;;;64.22;60.43;;;;;;;27.41;59.31;99688.65;1829912;78;25595;-64
2023/08/28 08:25:42;;;;;;;65.08;61.20;;;;;;;27.66;59.69;99688.72;1829951;78;27455;-64
2023/08/28 08:28:16;;;;;;;65.10;61.40;;;;;;;27.90;58.17;99695.38;1829816;78;25547;-64
2023/08/28 08:30:42;;;;;;;62.83;59.03;;;;;;;27.93;57.03;99705.64;1829960;78;25608;-64
2023/08/28 08:33:13;;;;;;;63.28;59.58;;;;;;;27.97;56.88;99698.59;1829854;77;25629;-61
2023/08/28 08:35:44;;;;;;;42.80;40.30;;;;;;;27.88;56.10;99693.03;1829959;77;25563;-62
2023/08/28 08:38:12;;;;;;;62.75;59.15;;;;;;;27.72;55.64;99693.91;1829792;78;27477;-63
2023/08/28 08:40:42;;;;;;;62.25;58.75;;;;;;;27.55;55.37;99702.16;1829724;77;27264;-62
2023/08/28 08:43:10;;;;;;;64.50;60.40;;;;;;;27.39;55.37;99695.41;1829810;78;25199;-63
2023/08/28 08:45:40;;;;;;;63.33;59.48;;;;;;;27.29;55.46;99695.71;1829806;78;25502;-62
2023/08/28 08:48:17;;;;;;;65.57;61.42;;;;;;;27.28;55.98;99710.20;1830430;77;25525;-62
2023/08/28 08:50:47;;;;;;;65.17;61.55;;;;;;;27.20;55.31;99703.25;1829832;78;27557;-63
2023/08/28 08:53:24;;;;;;;77.12;71.82;;;;;;;27.08;55.04;99710.92;1829726;78;25540;-68
2023/08/28 08:55:54;;;;;;;89.03;82.12;;;;;;;26.86;54.86;99711.45;1829823;77;25371;-69
2023/08/28 08:58:26;;;;;;;66.60;62.17;;;;;;;26.79;56.16;99706.09;1829448;77;27224;-71
2023/08/28 09:00:55;;;;;;;62.33;58.83;;;;;;;26.98;55.98;99703.80;1829258;78;25542;-68
2023/08/28 09:03:26;;;;;;;68.20;63.98;;;;;;;27.05;55.66;99704.23;1829556;77;27524;-68
2023/08/28 09:05:56;;;;;;;64.07;60.28;;;;;;;27.16;56.23;99705.36;1829669;78;25585;-68
2023/08/28 09:08:28;;;;;;;63.63;60.10;;;;;;;27.26;55.67;99719.56;1829518;77;25604;-68
2023/08/28 09:11:04;;;;;;;63.83;60.12;;;;;;;27.28;55.21;99709.41;1829736;78;27620;-68
2023/08/28 09:13:29;;;;;;;65.03;61.33;;;;;;;27.22;54.44;99720.25;1829530;77;25627;-68
2023/08/28 09:15:56;;;;;;;64.75;60.95;;;;;;;27.04;54.85;99716.56;1829716;78;27540;-69
2023/08/28 09:18:25;;;;;;;63.52;60.12;;;;;;;27.05;55.88;99709.78;1829360;78;25759;-68
2023/08/28 09:21:11;;;;;;;63.42;59.88;;;;;;;27.23;55.32;99719.66;1806092;78;25525;-68
2023/08/28 09:23:48;;;;;;;64.82;61.02;;;;;;;27.42;55.32;99722.92;1728892;82;25629;-69
2023/08/28 09:26:23;;;;;;;63.30;59.70;;;;;;;27.52;54.65;99727.41;1728901;83;25583;-68
2023/08/28 09:29:09;;;;;;;66.47;62.78;;;;;;;27.37;53.86;99729.02;1729049;83;27239;-69
2023/08/28 09:31:42;;;;;;;67.82;64.03;;;;;;;27.13;53.73;99733.36;1728987;83;25571;-69
2023/08/28 09:34:09;;;;;;;63.58;60.00;;;;;;;27.29;54.83;99730.41;1729064;83;25454;-69
2023/08/28 09:36:43;;;;;;;65.83;62.10;;;;;;;27.46;54.73;99726.37;1729066;83;26232;-70
2023/08/28 09:39:12;;;;;;;64.85;61.15;;;;;;;27.90;55.22;99732.27;1728655;82;25461;-69
2023/08/28 09:41:50;;;;;;;64.12;60.40;;;;;;;28.23;52.98;99738.29;1729135;83;27009;-69
2023/08/28 09:44:19;;;;;;;63.75;59.55;;;;;;;28.35;52.60;99748.66;1729185;83;25582;-67
2023/08/28 09:46:48;;;;;;;;;;;;;;;28.29;51.21;99752.59;1731594;83;25359;-66
2023/08/28 09:49:16;;;;;;;63.08;59.58;;;;;;;28.04;50.56;99758.89;1711396;83;26431;-64
2023/08/28 09:51:50;;;;;;;65.37;61.85;;;;;;;27.79;50.56;99754.05;1730156;83;25433;-62
2023/08/28 09:54:24;;;;;;;65.90;61.95;;;;;;;27.58;50.98;99753.43;1730104;83;27805;-62
2023/08/28 09:56:52;;;;;;;65.37;61.75;;;;;;;27.33;51.34;99751.94;1727359;83;25564;-63
2023/08/28 09:59:20;;;;;;;;;;;;;;;26.99;51.23;99742.06;1771498;78;26041;-63
2023/08/28 10:01:48;;;;;;;65.28;61.60;;;;;;;26.77;51.78;99743.97;1822068;77;35514;-63
2023/08/28 10:04:20;;;;;;;66.28;62.78;;;;;;;26.60;52.50;99742.38;1822182;78;25763;-62
2023/08/28 10:06:53;;;;;;;66.82;63.13;;;;;;;26.43;52.90;99740.97;1822319;78;27818;-63
2023/08/28 10:09:24;;;;;;;67.27;63.65;;;;;;;26.33;53.65;99738.45;1823065;78;26235;-61
2023/08/28 10:11:56;;;;;;;66.35;62.65;;;;;;;26.22;54.59;99730.35;1824074;78;25577;-62
2023/08/28 10:14:28;;;;;;;66.00;62.27;;;;;;;26.08;55.06;99721.75;1823895;78;26581;-73
2023/08/28 10:17:03;;;;;;;66.15;62.45;;;;;;;25.92;55.74;99718.31;1823785;78;25549;-74
2023/08/28 10:19:45;;;;;;;65.35;61.65;;;;;;;25.74;55.96;99722.82;1823674;77;27639;-75
2023/08/28 10:22:13;;;;;;;66.72;62.88;;;;;;;25.62;56.66;99738.70;1823362;78;25822;-76
2023/08/28 10:24:46;;;;;;;69.30;65.13;;;;;;;25.56;57.07;99738.42;1824024;77;25518;-72
2023/08/28 10:27:16;;;;;;;65.92;62.33;;;;;;;25.60;57.32;99736.96;1823963;78;25587;-72
2023/08/28 10:29:49;;;;;;;66.10;62.27;;;;;;;25.64;57.27;99742.62;1823933;78;25145;-73
2023/08/28 10:32:20;;;;;;;68.62;64.67;;;;;;;25.71;57.78;99741.09;1823933;77;27449;-71
2023/08/28 10:34:51;;;;;;;67.92;64.27;;;;;;;25.94;57.28;99728.35;1823809;78;25796;-71
2023/08/28 10:37:20;;;;;;;70.90;66.95;;;;;;;26.05;56.75;99745.57;1823868;78;25588;-72
2023/08/28 10:39:49;;;;;;;65.53;61.83;;;;;;;26.03;55.48;99765.20;1824236;77;25660;-70
2023/08/28 10:42:23;;;;;;;66.85;63.08;;;;;;;25.80;55.41;99767.44;1823958;78;25493;-72
2023/08/28 10:44:52;;;;;;;66.57;62.88;;;;;;;25.63;55.64;99785.34;1824038;78;27469;-71
2023/08/28 10:47:20;;;;;;;64.60;61.05;;;;;;;25.49;55.81;99796.09;1824037;78;25409;-70
2023/08/28 10:49:46;;;;;;;65.35;61.65;;;;;;;25.40;55.59;99793.07;1824217;78;25400;-71
2023/08/28 10:52:18;;;;;;;69.15;65.20;;;;;;;25.28;55.97;99782.00;1803624;78;25643;-72
2023/08/28 10:54:45;;;;;;;66.37;62.67;;;;;;;25.30;58.07;99775.47;1823944;78;25375;-71
2023/08/28 10:57:30;;;;;;;67.78;63.98;;;;;;;25.44;57.43;99759.81;1823268;78;28427;-74
2023/08/28 11:00:16;;;;;;;67.70;63.87;;;;;;;25.48;56.82;99766.05;1824081;78;25630;-71
2023/08/28 11:03:18;;;;;;;67.20;63.25;;;;;;;25.39;56.96;99776.30;1823140;78;25754;-70
2023/08/28 11:05:46;;;;;;;67.50;63.80;;;;;;;25.30;57.49;99792.08;1823446;78;26081;-70
2023/08/28 11:08:15;;;;;;;70.52;66.62;;;;;;;25.19;58.62;99796.20;1824452;78;25462;-72
2023/08/28 11:10:49;;;;;;;;;;;;;;;25.46;58.22;99798.92;1826809;78;27474;-72
2023/08/28 11:13:24;;;;;;;66.47;62.78;;;;;;;25.62;57.72;99804.55;1824093;78;25177;-74
2023/08/28 11:16:03;;;;;;;66.20;62.45;;;;;;;25.52;56.78;99813.83;1824027;78;25414;-74
2023/08/28 11:18:31;;;;;;;66.25;62.55;;;;;;;25.37;55.91;99829.92;1821945;78;25377;-71
2023/08/28 11:21:06;;;;;;;64.93;61.33;;;;;;;25.10;55.57;99829.33;1827309;78;25514;-72
2023/08/28 11:23:43;;;;;;;69.87;66.00;;;;;;;24.83;55.77;99832.73;1813972;78;27197;-72
2023/08/28 11:26:21;;;;;;;67.70;63.68;;;;;;;24.53;56.31;99834.28;1829975;77;25374;-74
2023/08/28 11:28:50;;;;;;;67.57;63.37;;;;;;;24.26;56.74;99832.24;1830316;78;25885;-58